createdAt,value
2022-07-26T00:01:49.926Z,52.90
2022-07-26T00:04:17.601Z,53.27
2022-07-26T00:06:45.232Z,52.99
2022-07-26T00:09:12.924Z,53.34
2022-07-26T00:11:42.015Z,52.96
2022-07-26T00:14:10.200Z,53.46
2022-07-26T00:16:40.186Z,53.34
2022-07-26T00:19:08.630Z,53.52
2022-07-26T00:21:37.089Z,53.44
2022-07-26T00:24:09.385Z,53.52
2022-07-26T00:26:37.008Z,53.74
2022-07-26T00:29:06.534Z,53.27
2022-07-26T00:31:34.452Z,53.27
2022-07-26T00:34:02.096Z,53.48
2022-07-26T00:36:29.757Z,53.42
2022-07-26T00:38:57.332Z,53.57
2022-07-26T00:41:24.959Z,54.03
2022-07-26T00:44:00.187Z,53.87
2022-07-26T00:46:29.585Z,54.45
2022-07-26T00:48:57.823Z,53.91
2022-07-26T00:51:25.468Z,54.49
2022-07-26T00:53:53.201Z,54.34
2022-07-26T00:56:21.672Z,55.16
2022-07-26T00:58:49.331Z,54.83
2022-07-26T01:01:16.952Z,55.50
2022-07-26T01:03:46.559Z,55.12
2022-07-26T01:06:14.209Z,55.07
2022-07-26T01:08:41.853Z,55.86
2022-07-26T01:11:09.492Z,55.66
2022-07-26T01:13:37.177Z,55.89
2022-07-26T01:16:05.126Z,55.52
2022-07-26T01:18:32.743Z,55.87
2022-07-26T01:21:13.688Z,55.65
2022-07-26T01:23:44.527Z,55.75
2022-07-26T01:26:12.616Z,56.39
2022-07-26T01:28:42.292Z,55.13
2022-07-26T01:31:10.027Z,55.60
2022-07-26T01:33:37.851Z,56.53
2022-07-26T01:36:05.973Z,57.23
2022-07-26T01:38:33.696Z,57.38
2022-07-26T01:41:02.799Z,57.48
2022-07-26T01:43:30.642Z,58.39
2022-07-26T01:45:59.692Z,58.36
2022-07-26T01:48:27.570Z,58.94
2022-07-26T01:50:55.298Z,59.84
2022-07-26T01:53:23.019Z,59.89
2022-07-26T01:55:50.641Z,60.77
2022-07-26T01:58:19.645Z,60.97
2022-07-26T02:00:47.344Z,60.93
2022-07-26T02:03:15.020Z,61.20
2022-07-26T02:05:42.764Z,61.05
2022-07-26T02:08:11.757Z,62.14
2022-07-26T02:10:58.708Z,62.44
2022-07-26T02:13:28.047Z,61.79
2022-07-26T02:15:55.798Z,61.94
2022-07-26T02:18:23.456Z,61.18
2022-07-26T02:20:51.062Z,61.98
2022-07-26T02:23:18.740Z,61.66
2022-07-26T02:25:46.376Z,61.22
2022-07-26T02:28:14.214Z,61.04
2022-07-26T02:30:43.564Z,61.72
2022-07-26T02:33:11.261Z,61.74
2022-07-26T02:35:38.962Z,61.18
2022-07-26T02:38:09.231Z,60.36
2022-07-26T02:40:39.781Z,60.76
2022-07-26T02:43:09.541Z,61.12
2022-07-26T02:45:37.833Z,60.61
2022-07-26T02:48:07.326Z,62.06
2022-07-26T02:50:35.534Z,62.00
2022-07-26T02:53:03.173Z,61.91
2022-07-26T02:55:32.006Z,62.54
2022-07-26T02:57:59.626Z,63.48
2022-07-26T03:00:28.161Z,63.72
2022-07-26T03:02:55.980Z,63.34
2022-07-26T03:05:25.100Z,63.52
2022-07-26T03:07:52.772Z,63.54
2022-07-26T03:10:20.420Z,63.64
2022-07-26T03:12:48.098Z,64.31
2022-07-26T03:15:15.777Z,63.72
2022-07-26T03:17:43.441Z,63.71
2022-07-26T03:20:12.732Z,63.91
2022-07-26T03:22:41.781Z,63.73
2022-07-26T03:25:10.037Z,64.40
2022-07-26T03:27:37.696Z,64.13
2022-07-26T03:30:05.877Z,63.64
2022-07-26T03:32:33.622Z,64.17
2022-07-26T03:35:01.237Z,64.19
2022-07-26T03:37:45.009Z,64.27
2022-07-26T03:40:16.080Z,64.05
2022-07-26T03:42:44.004Z,64.15
2022-07-26T03:45:12.351Z,63.44
2022-07-26T03:47:40.029Z,63.22
2022-07-26T03:50:09.310Z,62.97
2022-07-26T03:52:36.997Z,63.12
2022-07-26T03:55:25.416Z,63.17
2022-07-26T03:57:53.560Z,64.49
2022-07-26T04:00:21.463Z,64.48
2022-07-26T04:02:49.167Z,64.71
2022-07-26T04:05:16.819Z,64.69
2022-07-26T04:07:52.735Z,64.63
2022-07-26T04:10:21.421Z,64.28
2022-07-26T04:12:49.190Z,64.80
2022-07-26T04:15:19.896Z,64.28
2022-07-26T04:17:48.284Z,64.44
2022-07-26T04:20:16.713Z,65.10
2022-07-26T04:22:44.914Z,64.42
2022-07-26T04:25:12.686Z,64.28
2022-07-26T04:27:40.513Z,64.32
2022-07-26T04:30:14.442Z,64.29
2022-07-26T04:32:44.456Z,64.55
2022-07-26T04:35:15.388Z,64.91
2022-07-26T04:37:44.285Z,65.32
2022-07-26T04:40:13.336Z,65.53
2022-07-26T04:42:41.875Z,65.25
2022-07-26T04:45:12.609Z,64.05
2022-07-26T04:47:42.641Z,64.13
2022-07-26T04:50:13.396Z,64.31
2022-07-26T04:52:43.223Z,64.19
2022-07-26T04:55:11.797Z,63.87
2022-07-26T04:57:39.416Z,63.17
2022-07-26T05:00:26.733Z,62.93
2022-07-26T05:02:56.241Z,62.62
2022-07-26T05:05:27.655Z,63.42
2022-07-26T05:07:57.299Z,64.21
2022-07-26T05:10:30.124Z,63.95
2022-07-26T05:12:57.920Z,64.29
2022-07-26T05:15:25.863Z,64.35
2022-07-26T05:18:06.665Z,64.03
2022-07-26T05:20:37.071Z,64.29
2022-07-26T05:23:05.506Z,64.38
2022-07-26T05:25:33.233Z,63.90
2022-07-26T05:28:00.926Z,63.09
2022-07-26T05:30:28.712Z,62.90
2022-07-26T05:32:56.647Z,62.68
2022-07-26T05:35:24.429Z,62.74
2022-07-26T05:37:53.404Z,62.34
2022-07-26T05:40:21.102Z,62.53
2022-07-26T05:42:48.753Z,62.10
2022-07-26T05:45:16.584Z,62.25
2022-07-26T05:47:44.251Z,62.27
2022-07-26T05:50:11.947Z,62.66
2022-07-26T05:52:39.633Z,63.55
2022-07-26T05:55:10.106Z,62.80
2022-07-26T05:57:41.389Z,62.29
2022-07-26T06:00:12.576Z,61.53
2022-07-26T06:02:40.627Z,61.53
2022-07-26T06:05:09.258Z,61.07
2022-07-26T06:07:36.876Z,60.47
2022-07-26T06:10:05.619Z,61.74
2022-07-26T06:12:37.013Z,60.42
2022-07-26T06:15:15.515Z,59.38
2022-07-26T06:17:43.836Z,59.48
2022-07-26T06:20:12.344Z,59.32
2022-07-26T06:22:39.979Z,59.29
2022-07-26T06:25:08.427Z,59.49
2022-07-26T06:27:37.461Z,59.16
2022-07-26T06:30:05.958Z,58.57
2022-07-26T06:32:33.975Z,58.59
2022-07-26T06:35:01.654Z,59.29
2022-07-26T06:37:29.272Z,59.43
2022-07-26T06:39:56.892Z,59.77
2022-07-26T06:42:24.908Z,59.58
2022-07-26T06:44:53.866Z,58.95
2022-07-26T06:47:21.484Z,58.68
2022-07-26T06:49:49.114Z,57.05
2022-07-26T06:52:16.791Z,56.97
2022-07-26T06:54:47.534Z,56.73
2022-07-26T06:57:15.489Z,56.83
2022-07-26T06:59:43.081Z,57.41
2022-07-26T07:02:12.181Z,56.93
2022-07-26T07:04:39.930Z,57.35
2022-07-26T07:07:08.394Z,57.07
2022-07-26T07:09:37.522Z,57.06
2022-07-26T07:12:10.021Z,57.28
2022-07-26T07:14:38.554Z,57.01
2022-07-26T07:17:11.228Z,56.94
2022-07-26T07:19:42.401Z,56.90
2022-07-26T07:22:12.046Z,56.40
2022-07-26T07:24:40.516Z,55.49
2022-07-26T07:27:09.010Z,54.01
2022-07-26T07:29:38.776Z,53.83
2022-07-26T07:32:09.293Z,54.60
2022-07-26T07:34:48.005Z,55.26
2022-07-26T07:37:15.780Z,54.80
2022-07-26T07:39:43.551Z,54.12
2022-07-26T07:42:11.202Z,54.81
2022-07-26T07:44:38.862Z,55.42
2022-07-26T07:47:06.680Z,55.24
2022-07-26T07:49:34.555Z,54.96
2022-07-26T07:52:03.785Z,55.55
2022-07-26T07:54:31.443Z,55.67
2022-07-26T07:56:59.976Z,55.50
2022-07-26T07:59:27.698Z,54.92
2022-07-26T08:01:56.493Z,55.22
2022-07-26T08:04:24.131Z,54.48
2022-07-26T08:06:51.850Z,54.61
2022-07-26T08:09:23.418Z,53.88
2022-07-26T08:11:51.331Z,52.18
2022-07-26T08:14:19.174Z,52.64
2022-07-26T08:16:47.210Z,53.09
2022-07-26T08:19:15.405Z,52.73
2022-07-26T08:21:45.909Z,52.93
2022-07-26T08:24:14.575Z,52.28
2022-07-26T08:26:43.540Z,52.73
2022-07-26T08:29:11.732Z,51.99
2022-07-26T08:31:39.652Z,52.73
2022-07-26T08:34:07.276Z,52.23
2022-07-26T08:36:34.872Z,52.87
2022-07-26T08:39:03.117Z,52.13
2022-07-26T08:41:31.720Z,52.79
2022-07-26T08:44:07.939Z,52.12
2022-07-26T08:46:37.636Z,51.54
2022-07-26T08:49:07.587Z,50.88
2022-07-26T08:51:38.492Z,50.33
2022-07-26T08:54:06.384Z,49.95
2022-07-26T08:56:35.782Z,49.83
2022-07-26T08:59:07.553Z,49.07
2022-07-26T09:01:35.775Z,48.64
2022-07-26T09:04:30.309Z,48.29
2022-07-26T09:07:00.337Z,48.62
2022-07-26T09:09:28.924Z,49.00
2022-07-26T09:11:57.642Z,48.74
2022-07-26T09:14:38.496Z,48.33
2022-07-26T09:17:07.101Z,48.73
2022-07-26T09:19:34.944Z,48.47
2022-07-26T09:22:10.337Z,49.10
2022-07-26T09:24:42.080Z,48.60
2022-07-26T09:27:11.828Z,48.79
2022-07-26T09:29:49.304Z,47.58
2022-07-26T09:32:18.567Z,48.19
2022-07-26T09:34:52.941Z,47.39
2022-07-26T09:37:34.563Z,46.85
2022-07-26T09:40:04.213Z,46.69
2022-07-26T09:42:31.956Z,46.83
2022-07-26T09:45:01.832Z,45.70
2022-07-26T09:47:40.281Z,46.38
2022-07-26T09:50:16.008Z,46.57
2022-07-26T09:52:59.385Z,47.01
2022-07-26T09:55:31.085Z,46.73
2022-07-26T09:58:06.412Z,46.27
2022-07-26T10:00:35.509Z,44.94
2022-07-26T10:03:03.129Z,45.19
2022-07-26T10:05:30.884Z,44.32
2022-07-26T10:07:59.204Z,44.27
2022-07-26T10:10:30.281Z,43.08
2022-07-26T10:13:02.721Z,44.26
2022-07-26T10:15:40.985Z,43.44
2022-07-26T10:18:16.788Z,44.20
2022-07-26T10:20:48.737Z,43.57
2022-07-26T10:23:39.913Z,42.85
2022-07-26T10:26:10.296Z,43.21
2022-07-26T10:28:39.117Z,43.67
2022-07-26T10:31:31.423Z,43.43
2022-07-26T10:34:02.607Z,43.39
2022-07-26T10:36:35.420Z,43.17
2022-07-26T10:39:23.449Z,41.49
2022-07-26T10:41:59.699Z,40.90
2022-07-26T10:44:29.733Z,41.21
2022-07-26T10:47:05.267Z,40.68
2022-07-26T10:49:37.303Z,40.67
2022-07-26T10:52:14.567Z,39.79
2022-07-26T10:55:16.921Z,40.98
2022-07-26T10:57:46.865Z,40.23
2022-07-26T11:00:18.797Z,39.39
2022-07-26T11:02:52.756Z,38.58
2022-07-26T11:05:21.672Z,39.93
2022-07-26T11:07:58.494Z,39.32
2022-07-26T11:10:28.776Z,39.50
2022-07-26T11:13:09.083Z,39.34
2022-07-26T11:15:37.708Z,38.94
2022-07-26T11:18:18.032Z,39.42
2022-07-26T11:20:47.278Z,39.15
2022-07-26T11:23:31.089Z,37.47
2022-07-26T11:26:09.789Z,38.17
2022-07-26T11:29:06.406Z,36.66
2022-07-26T11:31:55.767Z,36.54
2022-07-26T11:34:31.155Z,38.63
2022-07-26T11:37:00.840Z,38.70
2022-07-26T11:39:30.526Z,38.13
2022-07-26T11:41:59.206Z,37.60
2022-07-26T11:44:27.079Z,37.92
2022-07-26T11:46:55.986Z,37.77
2022-07-26T11:49:52.186Z,37.37
2022-07-26T11:52:14.756Z,37.08
2022-07-26T11:54:47.219Z,37.08
2022-07-26T11:57:15.309Z,36.40
2022-07-26T11:59:45.424Z,36.13
2022-07-26T12:02:14.757Z,34.56
2022-07-26T12:04:44.637Z,35.52
2022-07-26T12:07:15.434Z,37.26
2022-07-26T12:09:47.913Z,37.79
2022-07-26T12:12:21.693Z,36.49
2022-07-26T12:14:58.099Z,34.12
2022-07-26T12:17:25.767Z,34.05
2022-07-26T12:19:56.305Z,32.64
2022-07-26T12:22:25.829Z,33.13
2022-07-26T12:24:57.220Z,34.10
2022-07-26T12:27:26.649Z,33.29
2022-07-26T12:29:56.477Z,32.15
2022-07-26T12:32:31.620Z,31.44
2022-07-26T12:35:01.398Z,30.40
2022-07-26T12:37:39.755Z,31.41
2022-07-26T12:40:11.462Z,30.78
2022-07-26T12:42:40.994Z,31.43
2022-07-26T12:45:11.349Z,32.29
2022-07-26T12:47:41.806Z,31.21
2022-07-26T12:50:11.479Z,30.47
2022-07-26T12:52:40.988Z,29.19
2022-07-26T12:55:11.460Z,28.76
2022-07-26T12:57:39.268Z,28.30
2022-07-26T13:00:15.152Z,28.84
2022-07-26T13:02:44.397Z,28.92
2022-07-26T13:05:13.132Z,29.07
2022-07-26T13:07:42.788Z,30.54
2022-07-26T13:13:00.049Z,33.74
2022-07-26T13:15:36.001Z,34.31
2022-07-26T13:18:04.454Z,34.73
2022-07-26T13:20:32.572Z,34.25
2022-07-26T13:23:02.790Z,32.56
2022-07-26T13:25:39.626Z,30.02
2022-07-26T13:28:08.049Z,27.33
2022-07-26T13:30:37.423Z,27.29
2022-07-26T13:33:05.129Z,27.15
2022-07-26T13:35:32.775Z,25.83
2022-07-26T13:38:01.706Z,24.80
2022-07-26T13:40:31.740Z,26.39
2022-07-26T13:42:59.901Z,29.41
2022-07-26T13:45:28.933Z,29.48
2022-07-26T13:47:57.239Z,29.28
2022-07-26T13:50:26.709Z,29.96
2022-07-26T13:52:55.111Z,29.14
2022-07-26T13:55:24.615Z,28.18
2022-07-26T13:57:56.595Z,28.33
2022-07-26T14:00:25.771Z,28.49
2022-07-26T14:02:53.770Z,29.15
2022-07-26T14:05:21.768Z,29.02
2022-07-26T14:07:49.618Z,27.81
2022-07-26T14:10:17.633Z,27.48
2022-07-26T14:12:47.663Z,26.46
2022-07-26T14:15:19.730Z,25.11
2022-07-26T14:17:49.546Z,23.53
2022-07-26T14:20:17.759Z,22.10
2022-07-26T14:22:45.453Z,20.69
2022-07-26T14:25:13.250Z,20.47
2022-07-26T14:27:40.896Z,21.79
2022-07-26T14:30:10.715Z,20.84
2022-07-26T14:32:38.382Z,21.94
2022-07-26T14:35:07.215Z,20.83
2022-07-26T14:37:44.264Z,19.54
2022-07-26T14:40:14.551Z,21.43
2022-07-26T14:42:42.260Z,23.79
2022-07-26T14:45:12.852Z,23.04
2022-07-26T14:47:40.895Z,24.26
2022-07-26T14:50:10.183Z,23.09
2022-07-26T14:52:39.523Z,23.31
2022-07-26T14:55:08.459Z,21.31
2022-07-26T14:57:38.318Z,19.31
2022-07-26T15:00:09.497Z,19.65
2022-07-26T15:02:43.302Z,19.91
2022-07-26T15:05:11.781Z,20.20
2022-07-26T15:07:39.961Z,18.79
2022-07-26T15:10:09.539Z,17.46
2022-07-26T15:12:37.610Z,16.78
2022-07-26T15:15:06.772Z,15.18
2022-07-26T15:17:34.615Z,15.49
2022-07-26T15:20:04.953Z,16.14
2022-07-26T15:22:32.652Z,15.29
2022-07-26T15:25:00.283Z,14.59
2022-07-26T15:27:27.857Z,14.94
2022-07-26T15:30:01.086Z,14.54
2022-07-26T15:32:31.689Z,17.69
2022-07-26T15:34:59.365Z,21.18
2022-07-26T15:37:28.786Z,21.11
2022-07-26T15:39:56.503Z,19.83
2022-07-26T15:42:24.117Z,18.94
2022-07-26T15:44:52.605Z,18.41
2022-07-26T15:47:52.522Z,20.71
2022-07-26T15:50:11.444Z,20.63
2022-07-26T15:52:42.757Z,18.24
2022-07-26T15:55:12.193Z,17.09
2022-07-26T15:57:40.969Z,16.64
2022-07-26T16:00:11.748Z,14.85
2022-07-26T16:02:40.937Z,14.91
2022-07-26T16:05:10.098Z,13.86
2022-07-26T16:07:38.624Z,13.79
2022-07-26T16:10:08.872Z,13.07
2022-07-26T16:12:36.528Z,13.14
2022-07-26T16:15:04.818Z,13.29
2022-07-26T16:17:32.536Z,12.86
2022-07-26T16:20:00.208Z,14.27
2022-07-26T16:22:28.213Z,14.87
2022-07-26T16:24:55.810Z,17.03
2022-07-26T16:27:24.728Z,18.46
2022-07-26T16:29:52.690Z,20.29
2022-07-26T16:32:21.035Z,22.67
2022-07-26T16:34:48.722Z,24.22
2022-07-26T16:37:16.337Z,26.44
2022-07-26T16:39:43.970Z,27.90
2022-07-26T16:42:11.559Z,27.64
2022-07-26T16:44:40.555Z,26.19
2022-07-26T16:47:08.481Z,22.60
2022-07-26T16:49:36.130Z,20.24
2022-07-26T16:52:03.766Z,18.32
2022-07-26T16:54:32.865Z,17.96
2022-07-26T16:57:00.879Z,16.56
2022-07-26T16:59:29.370Z,15.03
2022-07-26T17:02:01.528Z,17.96
2022-07-26T17:04:30.794Z,17.88
2022-07-26T17:07:23.569Z,17.91
2022-07-26T17:09:45.943Z,18.69
2022-07-26T17:12:13.632Z,18.11
2022-07-26T17:14:41.236Z,19.36
2022-07-26T17:17:10.147Z,21.00
2022-07-26T17:19:37.784Z,22.66
2022-07-26T17:22:05.578Z,24.58
2022-07-26T17:24:33.245Z,25.04
2022-07-26T17:27:00.912Z,25.44
2022-07-26T17:29:28.533Z,26.06
2022-07-26T17:31:56.119Z,27.12
2022-07-26T17:34:25.437Z,27.97
2022-07-26T17:36:58.394Z,29.01
2022-07-26T17:39:50.657Z,30.27
2022-07-26T17:42:14.861Z,31.50
2022-07-26T17:44:42.637Z,31.47
2022-07-26T17:47:28.609Z,29.42
2022-07-26T17:50:26.166Z,26.69
2022-07-26T17:52:48.943Z,25.94
2022-07-26T17:55:18.242Z,23.97
2022-07-26T17:57:46.036Z,22.15
2022-07-26T18:00:15.367Z,21.08
2022-07-26T18:02:43.103Z,20.26
2022-07-26T18:05:12.277Z,19.37
2022-07-26T18:07:40.527Z,19.46
2022-07-26T18:10:09.920Z,19.37
2022-07-26T18:12:37.613Z,18.74
2022-07-26T18:15:06.439Z,18.33
2022-07-26T18:17:34.208Z,19.86
2022-07-26T18:20:01.963Z,21.19
2022-07-26T18:22:31.163Z,21.25
2022-07-26T18:24:58.772Z,22.61
2022-07-26T18:27:28.007Z,23.39
2022-07-26T18:29:55.947Z,24.89
2022-07-26T18:32:23.557Z,26.28
2022-07-26T18:34:52.565Z,27.41
2022-07-26T18:37:20.922Z,28.31
2022-07-26T18:39:55.409Z,30.07
2022-07-26T18:42:25.194Z,31.60
2022-07-26T18:44:52.926Z,31.67
2022-07-26T18:47:20.565Z,32.51
2022-07-26T18:49:48.188Z,33.24
2022-07-26T18:52:17.789Z,34.16
2022-07-26T18:54:58.529Z,36.38
2022-07-26T18:57:26.212Z,37.13
2022-07-26T18:59:53.889Z,37.04
2022-07-26T19:02:21.508Z,38.10
2022-07-26T19:04:49.085Z,39.56
2022-07-26T19:07:17.753Z,39.64
2022-07-26T19:09:45.430Z,40.05
2022-07-26T19:12:14.445Z,40.56
2022-07-26T19:14:42.164Z,40.94
2022-07-26T19:17:11.626Z,40.57
2022-07-26T19:19:39.744Z,41.01
2022-07-26T19:22:07.430Z,41.40
2022-07-26T19:24:42.135Z,42.32
2022-07-26T19:27:10.093Z,42.40
2022-07-26T19:29:39.568Z,43.44
2022-07-26T19:32:08.184Z,43.33
2022-07-26T19:34:36.116Z,43.42
2022-07-26T19:37:04.733Z,43.54
2022-07-26T19:39:32.673Z,44.56
2022-07-26T19:42:00.356Z,44.14
2022-07-26T19:44:28.026Z,44.72
2022-07-26T19:46:57.967Z,44.74
2022-07-26T19:49:26.049Z,44.84
2022-07-26T19:51:53.697Z,44.94
2022-07-26T19:54:21.362Z,45.40
2022-07-26T19:56:49.081Z,44.77
2022-07-26T19:59:22.625Z,45.74
2022-07-26T20:01:52.841Z,46.68
2022-07-26T20:04:22.514Z,45.40
2022-07-26T20:06:50.572Z,47.05
2022-07-26T20:09:18.198Z,47.52
2022-07-26T20:11:50.625Z,46.96
2022-07-26T20:14:18.653Z,47.25
2022-07-26T20:16:46.726Z,47.18
2022-07-26T20:19:14.595Z,47.88
2022-07-26T20:21:43.983Z,47.90
2022-07-26T20:24:13.006Z,47.84
2022-07-26T20:26:40.611Z,48.09
2022-07-26T20:29:08.792Z,48.16
2022-07-26T20:31:36.708Z,48.15
2022-07-26T20:34:04.501Z,47.94
2022-07-26T20:36:32.281Z,49.03
2022-07-26T20:39:01.317Z,48.33
2022-07-26T20:41:34.069Z,49.21
2022-07-26T20:44:01.824Z,49.37
2022-07-26T20:46:29.637Z,50.37
2022-07-26T20:48:57.344Z,49.73
2022-07-26T20:51:25.334Z,50.20
2022-07-26T20:53:53.018Z,50.09
2022-07-26T20:56:21.996Z,50.91
2022-07-26T20:58:49.619Z,50.77
2022-07-26T21:01:17.382Z,51.15
2022-07-26T21:03:45.065Z,51.86
2022-07-26T21:06:12.686Z,52.09
2022-07-26T21:08:40.335Z,52.11
2022-07-26T21:11:07.978Z,51.29
2022-07-26T21:13:37.560Z,51.06
2022-07-26T21:16:05.775Z,51.84
2022-07-26T21:18:38.280Z,53.18
2022-07-26T21:21:06.101Z,52.61
2022-07-26T21:23:33.716Z,52.25
2022-07-26T21:26:01.368Z,52.59
2022-07-26T21:28:29.379Z,53.24
2022-07-26T21:30:58.497Z,53.36
2022-07-26T21:33:26.234Z,53.33
2022-07-26T21:35:54.134Z,53.49
2022-07-26T21:38:21.893Z,53.59
2022-07-26T21:40:49.729Z,54.01
2022-07-26T21:43:17.664Z,54.79
2022-07-26T21:45:45.491Z,54.24
2022-07-26T21:48:14.886Z,54.50
2022-07-26T21:50:45.535Z,54.63
2022-07-26T21:53:13.693Z,54.29
2022-07-26T21:55:42.545Z,54.35
2022-07-26T21:58:11.052Z,54.54
2022-07-26T22:00:39.236Z,54.44
2022-07-26T22:03:07.831Z,55.05
2022-07-26T22:05:38.991Z,54.51
2022-07-26T22:08:08.205Z,54.39
2022-07-26T22:10:44.022Z,54.63
2022-07-26T22:13:13.420Z,54.26
2022-07-26T22:15:41.539Z,54.43
2022-07-26T22:18:10.182Z,55.04
2022-07-26T22:20:40.015Z,55.21
2022-07-26T22:23:09.676Z,54.90
2022-07-26T22:25:38.260Z,54.93
2022-07-26T22:28:07.060Z,55.45
2022-07-26T22:30:35.201Z,55.52
2022-07-26T22:33:04.679Z,55.58
2022-07-26T22:35:36.654Z,55.18
2022-07-26T22:38:07.510Z,55.06
2022-07-26T22:40:35.332Z,55.52
2022-07-26T22:43:03.597Z,56.32
2022-07-26T22:45:31.625Z,55.70
2022-07-26T22:47:59.630Z,55.84
2022-07-26T22:50:27.815Z,56.95
2022-07-26T22:52:56.242Z,56.26
2022-07-26T22:55:25.673Z,57.03
2022-07-26T22:57:53.364Z,57.35
2022-07-26T23:00:21.542Z,56.69
2022-07-26T23:02:49.409Z,56.67
2022-07-26T23:05:17.252Z,57.20
2022-07-26T23:07:48.051Z,57.70
2022-07-26T23:10:17.009Z,57.98
2022-07-26T23:12:46.066Z,57.93
2022-07-26T23:15:14.058Z,57.99
2022-07-26T23:17:41.936Z,57.52
2022-07-26T23:20:11.431Z,57.69
2022-07-26T23:22:41.732Z,57.51
2022-07-26T23:25:10.130Z,57.77
2022-07-26T23:27:37.769Z,57.53
2022-07-26T23:30:07.724Z,57.97
2022-07-26T23:32:35.332Z,58.75
2022-07-26T23:35:02.975Z,58.76
2022-07-26T23:37:30.753Z,59.31
2022-07-26T23:39:58.394Z,59.53
2022-07-26T23:42:26.121Z,59.42
2022-07-26T23:44:53.844Z,59.15
2022-07-26T23:47:22.843Z,58.66
2022-07-26T23:49:50.458Z,58.85
2022-07-26T23:52:18.171Z,59.37
2022-07-26T23:54:45.798Z,59.47
2022-07-26T23:57:13.477Z,59.75
2022-07-26T23:59:41.147Z,59.45
